sensor_id;sensor_type;location;lat;lon;timestamp;P1;durP1;ratioP1;P2;durP2;ratioP2
8803;SDS011;4438;50.890;4.726;2023-02-15T00:01:49;34.13;;;26.80;;
8803;SDS011;4438;50.890;4.726;2023-02-15T00:04:20;35.80;;;27.63;;
8803;SDS011;4438;50.890;4.726;2023-02-15T00:06:47;34.60;;;26.20;;
8803;SDS011;4438;50.890;4.726;2023-02-15T00:09:13;34.73;;;27.57;;
8803;SDS011;4438;50.890;4.726;2023-02-15T00:11:39;37.83;;;28.10;;
8803;SDS011;4438;50.890;4.726;2023-02-15T00:14:13;36.07;;;28.20;;
8803;SDS011;4438;50.890;4.726;2023-02-15T00:16:39;34.67;;;27.53;;
8803;SDS011;4438;50.890;4.726;2023-02-15T00:19:06;35.80;;;26.63;;
8803;SDS011;4438;50.890;4.726;2023-02-15T00:21:33;35.70;;;27.17;;
8803;SDS011;4438;50.890;4.726;2023-02-15T00:24:00;35.60;;;27.07;;
8803;SDS011;4438;50.890;4.726;2023-02-15T00:26:27;37.07;;;27.40;;
8803;SDS011;4438;50.890;4.726;2023-02-15T00:28:53;34.83;;;27.33;;
8803;SDS011;4438;50.890;4.726;2023-02-15T00:31:19;35.37;;;27.00;;
8803;SDS011;4438;50.890;4.726;2023-02-15T00:33:45;35.67;;;26.57;;
8803;SDS011;4438;50.890;4.726;2023-02-15T00:36:11;34.43;;;27.27;;
8803;SDS011;4438;50.890;4.726;2023-02-15T00:38:37;34.00;;;26.93;;
8803;SDS011;4438;50.890;4.726;2023-02-15T00:41:04;35.77;;;25.63;;
8803;SDS011;4438;50.890;4.726;2023-02-15T00:43:31;33.50;;;27.13;;
8803;SDS011;4438;50.890;4.726;2023-02-15T00:45:57;34.83;;;25.67;;
8803;SDS011;4438;50.890;4.726;2023-02-15T00:48:24;45.10;;;28.50;;
8803;SDS011;4438;50.890;4.726;2023-02-15T00:50:51;40.20;;;28.73;;
8803;SDS011;4438;50.890;4.726;2023-02-15T00:53:17;42.43;;;30.80;;
8803;SDS011;4438;50.890;4.726;2023-02-15T00:55:43;45.07;;;31.27;;
8803;SDS011;4438;50.890;4.726;2023-02-15T00:58:10;42.30;;;31.07;;
8803;SDS011;4438;50.890;4.726;2023-02-15T01:00:36;42.87;;;29.73;;
8803;SDS011;4438;50.890;4.726;2023-02-15T01:03:03;42.83;;;32.43;;
8803;SDS011;4438;50.890;4.726;2023-02-15T01:05:29;46.57;;;33.77;;
8803;SDS011;4438;50.890;4.726;2023-02-15T01:07:56;40.83;;;32.03;;
8803;SDS011;4438;50.890;4.726;2023-02-15T01:10:22;45.10;;;31.30;;
8803;SDS011;4438;50.890;4.726;2023-02-15T01:12:49;41.03;;;30.17;;
8803;SDS011;4438;50.890;4.726;2023-02-15T01:15:15;40.70;;;29.63;;
8803;SDS011;4438;50.890;4.726;2023-02-15T01:17:42;41.60;;;30.57;;
8803;SDS011;4438;50.890;4.726;2023-02-15T01:20:11;40.47;;;28.47;;
8803;SDS011;4438;50.890;4.726;2023-02-15T01:22:37;39.40;;;29.53;;
8803;SDS011;4438;50.890;4.726;2023-02-15T01:25:03;39.87;;;29.80;;
8803;SDS011;4438;50.890;4.726;2023-02-15T01:27:30;39.27;;;29.43;;
8803;SDS011;4438;50.890;4.726;2023-02-15T01:29:56;36.13;;;27.87;;
8803;SDS011;4438;50.890;4.726;2023-02-15T01:32:22;37.33;;;27.73;;
8803;SDS011;4438;50.890;4.726;2023-02-15T01:34:48;38.77;;;28.27;;
8803;SDS011;4438;50.890;4.726;2023-02-15T01:37:15;34.13;;;28.27;;
8803;SDS011;4438;50.890;4.726;2023-02-15T01:39:41;37.97;;;28.83;;
8803;SDS011;4438;50.890;4.726;2023-02-15T01:42:09;36.43;;;28.13;;
8803;SDS011;4438;50.890;4.726;2023-02-15T01:44:55;39.43;;;27.57;;
8803;SDS011;4438;50.890;4.726;2023-02-15T01:50:16;37.47;;;28.10;;
8803;SDS011;4438;50.890;4.726;2023-02-15T01:52:43;37.30;;;27.47;;
8803;SDS011;4438;50.890;4.726;2023-02-15T01:55:12;35.33;;;26.97;;
8803;SDS011;4438;50.890;4.726;2023-02-15T01:57:38;33.83;;;27.07;;
8803;SDS011;4438;50.890;4.726;2023-02-15T02:00:05;36.37;;;27.77;;
8803;SDS011;4438;50.890;4.726;2023-02-15T02:02:32;33.73;;;27.33;;
8803;SDS011;4438;50.890;4.726;2023-02-15T02:04:59;36.77;;;27.47;;
8803;SDS011;4438;50.890;4.726;2023-02-15T02:07:29;35.00;;;27.57;;
8803;SDS011;4438;50.890;4.726;2023-02-15T02:09:57;33.37;;;25.57;;
8803;SDS011;4438;50.890;4.726;2023-02-15T02:12:23;36.13;;;26.67;;
8803;SDS011;4438;50.890;4.726;2023-02-15T02:14:50;35.20;;;26.20;;
8803;SDS011;4438;50.890;4.726;2023-02-15T02:17:18;33.90;;;26.00;;
8803;SDS011;4438;50.890;4.726;2023-02-15T02:27:42;36.63;;;26.93;;
8803;SDS011;4438;50.890;4.726;2023-02-15T02:45:41;34.03;;;26.23;;
8803;SDS011;4438;50.890;4.726;2023-02-15T02:48:13;31.40;;;24.33;;
8803;SDS011;4438;50.890;4.726;2023-02-15T02:50:41;38.33;;;27.93;;
8803;SDS011;4438;50.890;4.726;2023-02-15T02:53:09;41.33;;;28.43;;
8803;SDS011;4438;50.890;4.726;2023-02-15T03:00:39;33.73;;;25.33;;
8803;SDS011;4438;50.890;4.726;2023-02-15T03:03:06;34.40;;;26.33;;
8803;SDS011;4438;50.890;4.726;2023-02-15T03:05:37;34.73;;;27.23;;
8803;SDS011;4438;50.890;4.726;2023-02-15T03:08:03;36.07;;;25.70;;
8803;SDS011;4438;50.890;4.726;2023-02-15T03:10:31;36.27;;;27.10;;
8803;SDS011;4438;50.890;4.726;2023-02-15T03:12:58;36.97;;;26.33;;
8803;SDS011;4438;50.890;4.726;2023-02-15T03:15:34;37.00;;;27.00;;
8803;SDS011;4438;50.890;4.726;2023-02-15T03:18:22;34.27;;;25.13;;
8803;SDS011;4438;50.890;4.726;2023-02-15T03:20:51;38.93;;;26.63;;
8803;SDS011;4438;50.890;4.726;2023-02-15T03:23:20;36.27;;;26.50;;
8803;SDS011;4438;50.890;4.726;2023-02-15T03:25:57;36.90;;;26.47;;
8803;SDS011;4438;50.890;4.726;2023-02-15T03:28:29;34.43;;;26.70;;
8803;SDS011;4438;50.890;4.726;2023-02-15T03:30:57;34.10;;;25.17;;
8803;SDS011;4438;50.890;4.726;2023-02-15T03:33:25;36.23;;;25.93;;
8803;SDS011;4438;50.890;4.726;2023-02-15T03:36:03;37.23;;;26.23;;
8803;SDS011;4438;50.890;4.726;2023-02-15T03:38:55;35.17;;;26.13;;
8803;SDS011;4438;50.890;4.726;2023-02-15T03:41:16;32.60;;;24.73;;
8803;SDS011;4438;50.890;4.726;2023-02-15T03:46:24;33.50;;;24.87;;
8803;SDS011;4438;50.890;4.726;2023-02-15T03:48:53;32.27;;;26.13;;
8803;SDS011;4438;50.890;4.726;2023-02-15T03:51:21;31.57;;;24.90;;
8803;SDS011;4438;50.890;4.726;2023-02-15T03:56:39;33.40;;;25.17;;
8803;SDS011;4438;50.890;4.726;2023-02-15T03:59:06;33.13;;;25.53;;
8803;SDS011;4438;50.890;4.726;2023-02-15T04:04:42;34.93;;;25.43;;
8803;SDS011;4438;50.890;4.726;2023-02-15T04:07:09;32.73;;;26.17;;
8803;SDS011;4438;50.890;4.726;2023-02-15T04:09:35;33.17;;;24.97;;
8803;SDS011;4438;50.890;4.726;2023-02-15T04:12:20;36.67;;;25.77;;
8803;SDS011;4438;50.890;4.726;2023-02-15T04:14:46;36.27;;;25.83;;
8803;SDS011;4438;50.890;4.726;2023-02-15T04:17:31;35.03;;;26.50;;
8803;SDS011;4438;50.890;4.726;2023-02-15T04:19:57;34.70;;;26.30;;
8803;SDS011;4438;50.890;4.726;2023-02-15T04:22:42;34.43;;;25.80;;
8803;SDS011;4438;50.890;4.726;2023-02-15T04:25:27;36.33;;;25.80;;
8803;SDS011;4438;50.890;4.726;2023-02-15T04:27:53;36.30;;;26.30;;
8803;SDS011;4438;50.890;4.726;2023-02-15T04:30:21;36.10;;;26.00;;
8803;SDS011;4438;50.890;4.726;2023-02-15T04:32:47;36.73;;;26.83;;
8803;SDS011;4438;50.890;4.726;2023-02-15T04:35:14;36.87;;;27.00;;
8803;SDS011;4438;50.890;4.726;2023-02-15T04:37:40;37.90;;;27.90;;
8803;SDS011;4438;50.890;4.726;2023-02-15T04:40:07;34.53;;;27.00;;
8803;SDS011;4438;50.890;4.726;2023-02-15T04:42:34;36.27;;;26.13;;
8803;SDS011;4438;50.890;4.726;2023-02-15T04:45:00;35.80;;;25.50;;
8803;SDS011;4438;50.890;4.726;2023-02-15T04:47:26;34.40;;;26.80;;
8803;SDS011;4438;50.890;4.726;2023-02-15T04:49:52;34.23;;;26.07;;
8803;SDS011;4438;50.890;4.726;2023-02-15T04:52:18;34.67;;;25.53;;
8803;SDS011;4438;50.890;4.726;2023-02-15T04:54:45;36.43;;;26.73;;
8803;SDS011;4438;50.890;4.726;2023-02-15T04:57:12;39.20;;;27.30;;
8803;SDS011;4438;50.890;4.726;2023-02-15T04:59:38;36.10;;;26.57;;
8803;SDS011;4438;50.890;4.726;2023-02-15T05:02:04;36.33;;;27.10;;
8803;SDS011;4438;50.890;4.726;2023-02-15T05:04:30;34.00;;;25.50;;
8803;SDS011;4438;50.890;4.726;2023-02-15T05:06:56;34.10;;;25.73;;
8803;SDS011;4438;50.890;4.726;2023-02-15T05:09:22;36.90;;;25.87;;
8803;SDS011;4438;50.890;4.726;2023-02-15T05:11:49;36.73;;;26.97;;
8803;SDS011;4438;50.890;4.726;2023-02-15T05:14:15;34.20;;;24.10;;
8803;SDS011;4438;50.890;4.726;2023-02-15T05:16:41;33.73;;;25.33;;
8803;SDS011;4438;50.890;4.726;2023-02-15T05:19:07;33.63;;;26.00;;
8803;SDS011;4438;50.890;4.726;2023-02-15T05:21:33;34.47;;;25.63;;
8803;SDS011;4438;50.890;4.726;2023-02-15T05:23:59;31.93;;;25.13;;
8803;SDS011;4438;50.890;4.726;2023-02-15T05:26:45;35.90;;;24.90;;
8803;SDS011;4438;50.890;4.726;2023-02-15T05:29:30;34.90;;;25.80;;
8803;SDS011;4438;50.890;4.726;2023-02-15T05:31:56;34.60;;;25.47;;
8803;SDS011;4438;50.890;4.726;2023-02-15T05:34:22;36.70;;;26.97;;
8803;SDS011;4438;50.890;4.726;2023-02-15T05:36:48;37.07;;;27.47;;
8803;SDS011;4438;50.890;4.726;2023-02-15T05:39:14;35.23;;;26.53;;
8803;SDS011;4438;50.890;4.726;2023-02-15T05:41:40;35.13;;;26.07;;
8803;SDS011;4438;50.890;4.726;2023-02-15T05:44:07;35.17;;;27.23;;
8803;SDS011;4438;50.890;4.726;2023-02-15T05:46:33;36.50;;;26.30;;
8803;SDS011;4438;50.890;4.726;2023-02-15T05:48:59;36.73;;;27.37;;
8803;SDS011;4438;50.890;4.726;2023-02-15T05:51:25;35.13;;;25.13;;
8803;SDS011;4438;50.890;4.726;2023-02-15T05:53:51;37.53;;;27.50;;
8803;SDS011;4438;50.890;4.726;2023-02-15T05:56:17;34.37;;;25.93;;
8803;SDS011;4438;50.890;4.726;2023-02-15T05:58:43;39.47;;;28.30;;
8803;SDS011;4438;50.890;4.726;2023-02-15T06:01:11;36.67;;;27.20;;
8803;SDS011;4438;50.890;4.726;2023-02-15T06:03:38;35.60;;;25.70;;
8803;SDS011;4438;50.890;4.726;2023-02-15T06:06:04;36.83;;;27.07;;
8803;SDS011;4438;50.890;4.726;2023-02-15T06:08:31;38.40;;;27.03;;
8803;SDS011;4438;50.890;4.726;2023-02-15T06:10:58;38.90;;;27.77;;
8803;SDS011;4438;50.890;4.726;2023-02-15T06:13:24;38.00;;;27.47;;
8803;SDS011;4438;50.890;4.726;2023-02-15T06:15:50;36.60;;;26.20;;
8803;SDS011;4438;50.890;4.726;2023-02-15T06:18:16;37.03;;;26.77;;
8803;SDS011;4438;50.890;4.726;2023-02-15T06:20:42;36.20;;;27.50;;
8803;SDS011;4438;50.890;4.726;2023-02-15T06:23:10;33.70;;;25.23;;
8803;SDS011;4438;50.890;4.726;2023-02-15T06:25:36;37.53;;;27.30;;
8803;SDS011;4438;50.890;4.726;2023-02-15T06:28:02;34.40;;;25.90;;
8803;SDS011;4438;50.890;4.726;2023-02-15T06:30:29;38.43;;;26.37;;
8803;SDS011;4438;50.890;4.726;2023-02-15T06:32:55;36.50;;;26.73;;
8803;SDS011;4438;50.890;4.726;2023-02-15T06:35:21;35.13;;;26.33;;
8803;SDS011;4438;50.890;4.726;2023-02-15T06:37:47;35.97;;;26.37;;
8803;SDS011;4438;50.890;4.726;2023-02-15T06:40:13;34.53;;;26.97;;
8803;SDS011;4438;50.890;4.726;2023-02-15T06:42:40;34.60;;;26.17;;
8803;SDS011;4438;50.890;4.726;2023-02-15T06:45:07;35.47;;;25.13;;
8803;SDS011;4438;50.890;4.726;2023-02-15T06:47:33;30.17;;;24.20;;
8803;SDS011;4438;50.890;4.726;2023-02-15T06:49:59;34.47;;;25.13;;
8803;SDS011;4438;50.890;4.726;2023-02-15T06:52:25;35.10;;;25.87;;
8803;SDS011;4438;50.890;4.726;2023-02-15T06:54:51;35.33;;;25.17;;
8803;SDS011;4438;50.890;4.726;2023-02-15T06:57:17;37.30;;;25.43;;
8803;SDS011;4438;50.890;4.726;2023-02-15T06:59:43;35.67;;;26.17;;
8803;SDS011;4438;50.890;4.726;2023-02-15T07:02:13;39.43;;;26.77;;
8803;SDS011;4438;50.890;4.726;2023-02-15T07:04:39;36.30;;;26.67;;
8803;SDS011;4438;50.890;4.726;2023-02-15T07:07:07;39.03;;;28.53;;
8803;SDS011;4438;50.890;4.726;2023-02-15T07:09:34;38.83;;;27.60;;
8803;SDS011;4438;50.890;4.726;2023-02-15T07:12:00;34.90;;;26.60;;
8803;SDS011;4438;50.890;4.726;2023-02-15T07:14:45;41.07;;;29.50;;
8803;SDS011;4438;50.890;4.726;2023-02-15T07:17:11;41.37;;;28.43;;
8803;SDS011;4438;50.890;4.726;2023-02-15T07:19:37;40.13;;;28.30;;
8803;SDS011;4438;50.890;4.726;2023-02-15T07:22:03;40.50;;;28.03;;
8803;SDS011;4438;50.890;4.726;2023-02-15T07:24:30;34.93;;;27.37;;
8803;SDS011;4438;50.890;4.726;2023-02-15T07:26:56;38.23;;;27.67;;
8803;SDS011;4438;50.890;4.726;2023-02-15T07:29:25;39.07;;;27.53;;
8803;SDS011;4438;50.890;4.726;2023-02-15T07:31:51;38.23;;;28.00;;
8803;SDS011;4438;50.890;4.726;2023-02-15T07:34:17;35.17;;;26.83;;
8803;SDS011;4438;50.890;4.726;2023-02-15T07:36:43;40.37;;;27.03;;
8803;SDS011;4438;50.890;4.726;2023-02-15T07:39:09;39.40;;;28.13;;
8803;SDS011;4438;50.890;4.726;2023-02-15T07:41:36;38.37;;;27.77;;
8803;SDS011;4438;50.890;4.726;2023-02-15T07:44:02;38.27;;;27.30;;
8803;SDS011;4438;50.890;4.726;2023-02-15T07:46:28;37.37;;;27.47;;
8803;SDS011;4438;50.890;4.726;2023-02-15T07:48:55;40.20;;;28.33;;
8803;SDS011;4438;50.890;4.726;2023-02-15T07:51:21;40.47;;;28.60;;
8803;SDS011;4438;50.890;4.726;2023-02-15T07:53:47;42.70;;;30.57;;
8803;SDS011;4438;50.890;4.726;2023-02-15T07:56:14;47.13;;;31.97;;
8803;SDS011;4438;50.890;4.726;2023-02-15T07:58:40;42.50;;;31.37;;
8803;SDS011;4438;50.890;4.726;2023-02-15T08:03:46;48.13;;;33.00;;
8803;SDS011;4438;50.890;4.726;2023-02-15T08:06:13;52.47;;;34.03;;
8803;SDS011;4438;50.890;4.726;2023-02-15T08:08:39;41.73;;;30.47;;
8803;SDS011;4438;50.890;4.726;2023-02-15T08:14:00;42.53;;;30.50;;
8803;SDS011;4438;50.890;4.726;2023-02-15T08:16:37;41.60;;;30.63;;
8803;SDS011;4438;50.890;4.726;2023-02-15T08:19:05;39.43;;;29.60;;
8803;SDS011;4438;50.890;4.726;2023-02-15T08:21:31;42.13;;;30.10;;
8803;SDS011;4438;50.890;4.726;2023-02-15T08:23:58;41.90;;;29.67;;
8803;SDS011;4438;50.890;4.726;2023-02-15T08:26:25;39.87;;;29.43;;
8803;SDS011;4438;50.890;4.726;2023-02-15T08:28:52;38.77;;;28.87;;
8803;SDS011;4438;50.890;4.726;2023-02-15T08:31:18;43.67;;;30.67;;
8803;SDS011;4438;50.890;4.726;2023-02-15T08:33:45;38.23;;;28.97;;
8803;SDS011;4438;50.890;4.726;2023-02-15T08:36:12;41.63;;;30.27;;
8803;SDS011;4438;50.890;4.726;2023-02-15T08:38:39;41.90;;;29.37;;
8803;SDS011;4438;50.890;4.726;2023-02-15T08:43:37;42.83;;;28.50;;
8803;SDS011;4438;50.890;4.726;2023-02-15T08:46:04;38.23;;;30.33;;
8803;SDS011;4438;50.890;4.726;2023-02-15T08:48:31;39.03;;;29.00;;
8803;SDS011;4438;50.890;4.726;2023-02-15T08:50:57;42.93;;;31.33;;
8803;SDS011;4438;50.890;4.726;2023-02-15T08:53:23;38.70;;;29.27;;
8803;SDS011;4438;50.890;4.726;2023-02-15T08:55:58;40.83;;;29.07;;
8803;SDS011;4438;50.890;4.726;2023-02-15T08:58:25;38.77;;;28.13;;
8803;SDS011;4438;50.890;4.726;2023-02-15T09:00:51;39.90;;;29.23;;
8803;SDS011;4438;50.890;4.726;2023-02-15T09:03:17;38.50;;;27.03;;
8803;SDS011;4438;50.890;4.726;2023-02-15T09:05:43;38.10;;;27.07;;
8803;SDS011;4438;50.890;4.726;2023-02-15T09:08:09;39.03;;;27.60;;
8803;SDS011;4438;50.890;4.726;2023-02-15T09:10:35;36.70;;;28.33;;
8803;SDS011;4438;50.890;4.726;2023-02-15T09:13:01;37.23;;;27.80;;
8803;SDS011;4438;50.890;4.726;2023-02-15T09:15:28;37.43;;;27.03;;
8803;SDS011;4438;50.890;4.726;2023-02-15T09:17:54;37.17;;;26.47;;
8803;SDS011;4438;50.890;4.726;2023-02-15T09:20:20;36.67;;;27.87;;
8803;SDS011;4438;50.890;4.726;2023-02-15T09:22:47;39.50;;;27.77;;
8803;SDS011;4438;50.890;4.726;2023-02-15T09:25:13;37.13;;;26.70;;
8803;SDS011;4438;50.890;4.726;2023-02-15T09:27:39;36.73;;;26.57;;
8803;SDS011;4438;50.890;4.726;2023-02-15T09:30:06;35.53;;;27.20;;
8803;SDS011;4438;50.890;4.726;2023-02-15T09:32:32;36.30;;;26.17;;
8803;SDS011;4438;50.890;4.726;2023-02-15T09:34:58;35.77;;;26.43;;
8803;SDS011;4438;50.890;4.726;2023-02-15T09:37:24;36.27;;;26.63;;
8803;SDS011;4438;50.890;4.726;2023-02-15T09:39:50;32.83;;;25.30;;
8803;SDS011;4438;50.890;4.726;2023-02-15T09:50:28;35.57;;;25.57;;
8803;SDS011;4438;50.890;4.726;2023-02-15T10:03:09;35.40;;;25.73;;
8803;SDS011;4438;50.890;4.726;2023-02-15T10:10:39;33.87;;;25.23;;
8803;SDS011;4438;50.890;4.726;2023-02-15T10:20:55;35.43;;;25.97;;
8803;SDS011;4438;50.890;4.726;2023-02-15T10:28:42;36.10;;;25.53;;
8803;SDS011;4438;50.890;4.726;2023-02-15T10:31:13;35.33;;;26.03;;
8803;SDS011;4438;50.890;4.726;2023-02-15T10:33:42;31.93;;;25.63;;
8803;SDS011;4438;50.890;4.726;2023-02-15T10:39:02;33.90;;;24.67;;
8803;SDS011;4438;50.890;4.726;2023-02-15T10:44:10;29.10;;;23.53;;
8803;SDS011;4438;50.890;4.726;2023-02-15T10:54:29;29.40;;;22.93;;
8803;SDS011;4438;50.890;4.726;2023-02-15T10:59:34;30.30;;;22.70;;
8803;SDS011;4438;50.890;4.726;2023-02-15T11:02:09;26.53;;;22.43;;
8803;SDS011;4438;50.890;4.726;2023-02-15T11:04:51;26.77;;;21.23;;
8803;SDS011;4438;50.890;4.726;2023-02-15T11:07:33;28.63;;;23.30;;
8803;SDS011;4438;50.890;4.726;2023-02-15T11:12:33;29.73;;;23.00;;
8803;SDS011;4438;50.890;4.726;2023-02-15T11:17:45;30.67;;;22.60;;
8803;SDS011;4438;50.890;4.726;2023-02-15T11:20:21;27.10;;;21.03;;
8803;SDS011;4438;50.890;4.726;2023-02-15T11:22:49;27.97;;;21.73;;
8803;SDS011;4438;50.890;4.726;2023-02-15T11:25:20;30.07;;;22.10;;
8803;SDS011;4438;50.890;4.726;2023-02-15T11:27:48;27.17;;;22.07;;
8803;SDS011;4438;50.890;4.726;2023-02-15T11:30:22;27.57;;;21.07;;
8803;SDS011;4438;50.890;4.726;2023-02-15T11:32:50;27.83;;;21.57;;
8803;SDS011;4438;50.890;4.726;2023-02-15T11:37:48;28.07;;;22.37;;
8803;SDS011;4438;50.890;4.726;2023-02-15T11:40:20;26.30;;;22.00;;
8803;SDS011;4438;50.890;4.726;2023-02-15T11:42:49;25.57;;;21.63;;
8803;SDS011;4438;50.890;4.726;2023-02-15T11:47:46;26.33;;;22.00;;
8803;SDS011;4438;50.890;4.726;2023-02-15T11:50:16;29.50;;;22.37;;
8803;SDS011;4438;50.890;4.726;2023-02-15T11:52:43;27.53;;;22.00;;
8803;SDS011;4438;50.890;4.726;2023-02-15T11:55:12;27.30;;;22.07;;
8803;SDS011;4438;50.890;4.726;2023-02-15T11:57:41;26.23;;;21.37;;
8803;SDS011;4438;50.890;4.726;2023-02-15T12:02:37;28.17;;;22.07;;
8803;SDS011;4438;50.890;4.726;2023-02-15T12:05:16;26.50;;;22.03;;
8803;SDS011;4438;50.890;4.726;2023-02-15T12:07:49;26.97;;;21.53;;
8803;SDS011;4438;50.890;4.726;2023-02-15T12:10:23;29.23;;;22.67;;
8803;SDS011;4438;50.890;4.726;2023-02-15T12:15:44;27.93;;;22.13;;
8803;SDS011;4438;50.890;4.726;2023-02-15T12:20:58;29.80;;;23.13;;
8803;SDS011;4438;50.890;4.726;2023-02-15T12:23:24;28.07;;;22.27;;
8803;SDS011;4438;50.890;4.726;2023-02-15T12:25:53;29.53;;;22.47;;
8803;SDS011;4438;50.890;4.726;2023-02-15T12:28:33;28.27;;;22.77;;
8803;SDS011;4438;50.890;4.726;2023-02-15T12:31:01;29.50;;;22.97;;
8803;SDS011;4438;50.890;4.726;2023-02-15T12:33:32;28.80;;;21.43;;
8803;SDS011;4438;50.890;4.726;2023-02-15T12:36:22;28.60;;;22.40;;
8803;SDS011;4438;50.890;4.726;2023-02-15T12:41:31;27.57;;;21.47;;
8803;SDS011;4438;50.890;4.726;2023-02-15T12:46:29;29.97;;;22.60;;
8803;SDS011;4438;50.890;4.726;2023-02-15T12:54:25;26.03;;;21.33;;
8803;SDS011;4438;50.890;4.726;2023-02-15T12:56:54;28.43;;;22.43;;
8803;SDS011;4438;50.890;4.726;2023-02-15T12:59:22;28.33;;;22.10;;
8803;SDS011;4438;50.890;4.726;2023-02-15T13:01:48;30.90;;;23.13;;
8803;SDS011;4438;50.890;4.726;2023-02-15T13:04:19;28.60;;;22.57;;
8803;SDS011;4438;50.890;4.726;2023-02-15T13:06:48;29.83;;;22.93;;
8803;SDS011;4438;50.890;4.726;2023-02-15T13:09:15;34.87;;;23.93;;
8803;SDS011;4438;50.890;4.726;2023-02-15T13:11:42;30.10;;;23.30;;
8803;SDS011;4438;50.890;4.726;2023-02-15T13:16:46;29.63;;;24.20;;
8803;SDS011;4438;50.890;4.726;2023-02-15T13:19:15;33.73;;;23.63;;
8803;SDS011;4438;50.890;4.726;2023-02-15T13:21:44;30.37;;;24.33;;
8803;SDS011;4438;50.890;4.726;2023-02-15T13:24:15;26.53;;;22.33;;
8803;SDS011;4438;50.890;4.726;2023-02-15T13:26:43;28.80;;;23.03;;
8803;SDS011;4438;50.890;4.726;2023-02-15T13:29:14;32.00;;;23.80;;
8803;SDS011;4438;50.890;4.726;2023-02-15T13:31:43;27.50;;;22.37;;
8803;SDS011;4438;50.890;4.726;2023-02-15T13:34:12;28.97;;;23.53;;
8803;SDS011;4438;50.890;4.726;2023-02-15T13:41:47;29.80;;;22.97;;
8803;SDS011;4438;50.890;4.726;2023-02-15T13:44:19;28.97;;;22.97;;
8803;SDS011;4438;50.890;4.726;2023-02-15T13:46:52;29.33;;;23.17;;
8803;SDS011;4438;50.890;4.726;2023-02-15T13:52:18;28.57;;;22.33;;
8803;SDS011;4438;50.890;4.726;2023-02-15T14:05:22;31.30;;;23.37;;
8803;SDS011;4438;50.890;4.726;2023-02-15T14:16:21;28.80;;;23.57;;
8803;SDS011;4438;50.890;4.726;2023-02-15T14:18:59;32.53;;;24.60;;
8803;SDS011;4438;50.890;4.726;2023-02-15T14:31:47;30.43;;;23.83;;
8803;SDS011;4438;50.890;4.726;2023-02-15T14:34:19;28.93;;;23.50;;
8803;SDS011;4438;50.890;4.726;2023-02-15T14:36:47;32.80;;;24.53;;
8803;SDS011;4438;50.890;4.726;2023-02-15T14:41:59;28.70;;;24.13;;
8803;SDS011;4438;50.890;4.726;2023-02-15T14:49:38;29.20;;;24.43;;
8803;SDS011;4438;50.890;4.726;2023-02-15T14:52:08;32.67;;;25.73;;
8803;SDS011;4438;50.890;4.726;2023-02-15T15:01:57;30.53;;;25.83;;
8803;SDS011;4438;50.890;4.726;2023-02-15T15:09:26;32.27;;;24.73;;
8803;SDS011;4438;50.890;4.726;2023-02-15T15:11:53;30.90;;;25.07;;
8803;SDS011;4438;50.890;4.726;2023-02-15T15:17:02;30.43;;;24.13;;
8803;SDS011;4438;50.890;4.726;2023-02-15T15:24:55;29.60;;;24.53;;
8803;SDS011;4438;50.890;4.726;2023-02-15T15:33:02;33.03;;;24.90;;
8803;SDS011;4438;50.890;4.726;2023-02-15T15:43:34;31.57;;;24.33;;
8803;SDS011;4438;50.890;4.726;2023-02-15T15:49:08;30.20;;;24.87;;
8803;SDS011;4438;50.890;4.726;2023-02-15T15:51:37;29.43;;;23.87;;
8803;SDS011;4438;50.890;4.726;2023-02-15T15:54:04;32.37;;;24.70;;
8803;SDS011;4438;50.890;4.726;2023-02-15T15:56:32;30.07;;;24.10;;
8803;SDS011;4438;50.890;4.726;2023-02-15T15:59:12;30.33;;;25.17;;
8803;SDS011;4438;50.890;4.726;2023-02-15T16:01:43;31.77;;;24.77;;
8803;SDS011;4438;50.890;4.726;2023-02-15T16:04:11;30.17;;;24.33;;
8803;SDS011;4438;50.890;4.726;2023-02-15T16:06:38;31.00;;;24.87;;
8803;SDS011;4438;50.890;4.726;2023-02-15T16:11:37;30.50;;;24.00;;
8803;SDS011;4438;50.890;4.726;2023-02-15T16:14:16;33.10;;;24.67;;
8803;SDS011;4438;50.890;4.726;2023-02-15T16:16:48;35.07;;;26.37;;
8803;SDS011;4438;50.890;4.726;2023-02-15T16:19:20;34.17;;;26.43;;
8803;SDS011;4438;50.890;4.726;2023-02-15T16:21:48;34.73;;;26.10;;
8803;SDS011;4438;50.890;4.726;2023-02-15T16:29:28;33.27;;;25.60;;
8803;SDS011;4438;50.890;4.726;2023-02-15T16:32:04;35.17;;;27.53;;
8803;SDS011;4438;50.890;4.726;2023-02-15T16:34:31;32.53;;;26.50;;
8803;SDS011;4438;50.890;4.726;2023-02-15T16:37:17;36.30;;;27.70;;
8803;SDS011;4438;50.890;4.726;2023-02-15T16:39:44;32.27;;;26.27;;
8803;SDS011;4438;50.890;4.726;2023-02-15T16:42:11;36.63;;;27.10;;
8803;SDS011;4438;50.890;4.726;2023-02-15T16:44:37;35.73;;;26.60;;
8803;SDS011;4438;50.890;4.726;2023-02-15T16:47:05;33.63;;;27.43;;
8803;SDS011;4438;50.890;4.726;2023-02-15T16:49:35;32.87;;;26.47;;
8803;SDS011;4438;50.890;4.726;2023-02-15T16:52:02;31.60;;;26.30;;
8803;SDS011;4438;50.890;4.726;2023-02-15T16:54:34;38.97;;;28.53;;
8803;SDS011;4438;50.890;4.726;2023-02-15T16:57:01;32.67;;;26.90;;
8803;SDS011;4438;50.890;4.726;2023-02-15T16:59:34;36.23;;;26.77;;
8803;SDS011;4438;50.890;4.726;2023-02-15T17:02:05;33.40;;;26.93;;
8803;SDS011;4438;50.890;4.726;2023-02-15T17:04:32;34.87;;;27.77;;
8803;SDS011;4438;50.890;4.726;2023-02-15T17:07:13;33.73;;;26.13;;
8803;SDS011;4438;50.890;4.726;2023-02-15T17:09:48;35.83;;;28.17;;
8803;SDS011;4438;50.890;4.726;2023-02-15T17:12:35;36.77;;;27.83;;
8803;SDS011;4438;50.890;4.726;2023-02-15T17:15:00;39.40;;;29.63;;
8803;SDS011;4438;50.890;4.726;2023-02-15T17:17:27;39.30;;;29.80;;
8803;SDS011;4438;50.890;4.726;2023-02-15T17:19:56;39.83;;;29.97;;
8803;SDS011;4438;50.890;4.726;2023-02-15T17:22:23;39.07;;;29.60;;
8803;SDS011;4438;50.890;4.726;2023-02-15T17:24:50;41.30;;;30.30;;
8803;SDS011;4438;50.890;4.726;2023-02-15T17:27:27;41.03;;;30.57;;
8803;SDS011;4438;50.890;4.726;2023-02-15T17:29:57;39.10;;;30.37;;
8803;SDS011;4438;50.890;4.726;2023-02-15T17:32:25;40.53;;;31.10;;
8803;SDS011;4438;50.890;4.726;2023-02-15T17:34:59;40.60;;;31.07;;
8803;SDS011;4438;50.890;4.726;2023-02-15T17:37:29;38.73;;;29.87;;
8803;SDS011;4438;50.890;4.726;2023-02-15T17:39:56;39.07;;;30.13;;
8803;SDS011;4438;50.890;4.726;2023-02-15T17:42:23;39.33;;;31.13;;
8803;SDS011;4438;50.890;4.726;2023-02-15T17:44:49;40.97;;;31.60;;
8803;SDS011;4438;50.890;4.726;2023-02-15T17:47:16;40.77;;;30.67;;
8803;SDS011;4438;50.890;4.726;2023-02-15T17:49:44;40.70;;;32.13;;
8803;SDS011;4438;50.890;4.726;2023-02-15T17:52:11;43.60;;;32.00;;
8803;SDS011;4438;50.890;4.726;2023-02-15T17:54:38;43.07;;;31.70;;
8803;SDS011;4438;50.890;4.726;2023-02-15T17:57:23;47.13;;;34.37;;
8803;SDS011;4438;50.890;4.726;2023-02-15T17:59:51;43.10;;;32.10;;
8803;SDS011;4438;50.890;4.726;2023-02-15T18:02:36;42.07;;;30.97;;
8803;SDS011;4438;50.890;4.726;2023-02-15T18:05:20;39.77;;;31.43;;
8803;SDS011;4438;50.890;4.726;2023-02-15T18:08:10;43.17;;;33.40;;
8803;SDS011;4438;50.890;4.726;2023-02-15T18:10:55;40.57;;;30.93;;
8803;SDS011;4438;50.890;4.726;2023-02-15T18:13:40;40.23;;;31.33;;
8803;SDS011;4438;50.890;4.726;2023-02-15T18:16:09;41.20;;;31.47;;
8803;SDS011;4438;50.890;4.726;2023-02-15T18:18:36;41.10;;;31.87;;
8803;SDS011;4438;50.890;4.726;2023-02-15T18:21:02;37.57;;;30.50;;
8803;SDS011;4438;50.890;4.726;2023-02-15T18:23:29;40.77;;;29.87;;
8803;SDS011;4438;50.890;4.726;2023-02-15T18:25:55;40.57;;;30.50;;
8803;SDS011;4438;50.890;4.726;2023-02-15T18:28:21;39.93;;;30.77;;
8803;SDS011;4438;50.890;4.726;2023-02-15T18:30:47;39.87;;;30.13;;
8803;SDS011;4438;50.890;4.726;2023-02-15T18:33:25;40.93;;;32.27;;
8803;SDS011;4438;50.890;4.726;2023-02-15T18:35:54;39.27;;;30.63;;
8803;SDS011;4438;50.890;4.726;2023-02-15T18:38:20;41.10;;;31.30;;
8803;SDS011;4438;50.890;4.726;2023-02-15T18:40:46;41.20;;;31.13;;